sensor_id;sensor_type;location;lat;lon;timestamp;pressure;altitude;pressure_sealevel;temperature;humidity
14067;BME280;7108;42.684;23.350;2022-10-26T00:00:09;95783.34;;;16.52;100.00
14067;BME280;7108;42.684;23.350;2022-10-26T00:02:34;95768.16;;;16.48;100.00
14067;BME280;7108;42.684;23.350;2022-10-26T00:05:00;95778.63;;;16.49;100.00
14067;BME280;7108;42.684;23.350;2022-10-26T00:07:28;95775.53;;;16.47;100.00
14067;BME280;7108;42.684;23.350;2022-10-26T00:09:53;95780.63;;;16.52;100.00
14067;BME280;7108;42.684;23.350;2022-10-26T00:12:20;95774.38;;;16.48;100.00
14067;BME280;7108;42.684;23.350;2022-10-26T00:14:45;95779.84;;;16.55;100.00
14067;BME280;7108;42.684;23.350;2022-10-26T00:17:10;95775.19;;;16.56;100.00
14067;BME280;7108;42.684;23.350;2022-10-26T00:19:36;95778.63;;;16.49;100.00
14067;BME280;7108;42.684;23.350;2022-10-26T00:22:02;95773.22;;;16.46;100.00
14067;BME280;7108;42.684;23.350;2022-10-26T00:24:27;95770.06;;;16.41;100.00
14067;BME280;7108;42.684;23.350;2022-10-26T00:26:53;95769.66;;;16.42;100.00
14067;BME280;7108;42.684;23.350;2022-10-26T00:29:18;95779.38;;;16.40;100.00
14067;BME280;7108;42.684;23.350;2022-10-26T00:31:44;95796.88;;;16.42;100.00
14067;BME280;7108;42.684;23.350;2022-10-26T00:34:10;95786.00;;;16.42;100.00
14067;BME280;7108;42.684;23.350;2022-10-26T00:36:36;95787.94;;;16.42;100.00
14067;BME280;7108;42.684;23.350;2022-10-26T00:39:02;95789.47;;;16.39;100.00
14067;BME280;7108;42.684;23.350;2022-10-26T00:41:31;95782.06;;;16.36;100.00
14067;BME280;7108;42.684;23.350;2022-10-26T00:43:57;95784.78;;;16.36;100.00
14067;BME280;7108;42.684;23.350;2022-10-26T00:46:29;95779.72;;;16.28;100.00
14067;BME280;7108;42.684;23.350;2022-10-26T00:49:04;95787.09;;;16.31;100.00
14067;BME280;7108;42.684;23.350;2022-10-26T00:51:37;95768.78;;;16.24;100.00
14067;BME280;7108;42.684;23.350;2022-10-26T00:54:09;95781.63;;;16.27;100.00
14067;BME280;7108;42.684;23.350;2022-10-26T00:56:36;95775.81;;;16.29;100.00
14067;BME280;7108;42.684;23.350;2022-10-26T00:59:04;95768.72;;;16.17;100.00
14067;BME280;7108;42.684;23.350;2022-10-26T01:01:32;95762.91;;;16.19;100.00
14067;BME280;7108;42.684;23.350;2022-10-26T01:04:00;95771.09;;;16.26;100.00
14067;BME280;7108;42.684;23.350;2022-10-26T01:06:29;95774.56;;;16.16;100.00
14067;BME280;7108;42.684;23.350;2022-10-26T01:08:55;95769.84;;;16.09;100.00
14067;BME280;7108;42.684;23.350;2022-10-26T01:11:21;95775.25;;;16.06;100.00
14067;BME280;7108;42.684;23.350;2022-10-26T01:13:47;95781.88;;;16.08;100.00
14067;BME280;7108;42.684;23.350;2022-10-26T01:16:39;95768.28;;;16.08;100.00
14067;BME280;7108;42.684;23.350;2022-10-26T01:22:12;95775.59;;;15.97;100.00
14067;BME280;7108;42.684;23.350;2022-10-26T01:25:00;95767.41;;;15.94;100.00
14067;BME280;7108;42.684;23.350;2022-10-26T01:27:40;95778.34;;;16.01;100.00
14067;BME280;7108;42.684;23.350;2022-10-26T01:30:34;95776.41;;;16.05;100.00
14067;BME280;7108;42.684;23.350;2022-10-26T01:33:18;95771.38;;;16.03;100.00
14067;BME280;7108;42.684;23.350;2022-10-26T01:36:02;95763.91;;;15.93;100.00
14067;BME280;7108;42.684;23.350;2022-10-26T01:38:43;95765.47;;;15.91;100.00
14067;BME280;7108;42.684;23.350;2022-10-26T01:41:31;95775.84;;;15.82;100.00
14067;BME280;7108;42.684;23.350;2022-10-26T01:44:02;95757.84;;;15.60;100.00
14067;BME280;7108;42.684;23.350;2022-10-26T01:46:34;95765.63;;;15.62;100.00
14067;BME280;7108;42.684;23.350;2022-10-26T01:49:04;95763.28;;;15.64;100.00
14067;BME280;7108;42.684;23.350;2022-10-26T01:51:33;95762.47;;;15.60;100.00
14067;BME280;7108;42.684;23.350;2022-10-26T01:53:59;95767.53;;;15.61;100.00
14067;BME280;7108;42.684;23.350;2022-10-26T01:56:26;95768.72;;;15.60;100.00
14067;BME280;7108;42.684;23.350;2022-10-26T02:07:03;95763.63;;;15.55;100.00
14067;BME280;7108;42.684;23.350;2022-10-26T02:10:02;95762.09;;;15.61;100.00
14067;BME280;7108;42.684;23.350;2022-10-26T02:15:18;95771.88;;;15.69;100.00
14067;BME280;7108;42.684;23.350;2022-10-26T02:17:58;95769.88;;;15.59;100.00
14067;BME280;7108;42.684;23.350;2022-10-26T02:20:31;95782.75;;;15.69;100.00
14067;BME280;7108;42.684;23.350;2022-10-26T02:23:00;95788.13;;;15.62;100.00
14067;BME280;7108;42.684;23.350;2022-10-26T02:25:31;95785.38;;;15.59;100.00
14067;BME280;7108;42.684;23.350;2022-10-26T02:28:06;95770.97;;;15.55;100.00
14067;BME280;7108;42.684;23.350;2022-10-26T02:30:34;95779.53;;;15.57;100.00
14067;BME280;7108;42.684;23.350;2022-10-26T02:33:02;95786.13;;;15.56;100.00
14067;BME280;7108;42.684;23.350;2022-10-26T02:35:32;95777.91;;;15.49;100.00
14067;BME280;7108;42.684;23.350;2022-10-26T02:38:00;95786.88;;;15.53;100.00
14067;BME280;7108;42.684;23.350;2022-10-26T02:40:28;95789.19;;;15.51;100.00
14067;BME280;7108;42.684;23.350;2022-10-26T02:42:58;95789.16;;;15.47;100.00
14067;BME280;7108;42.684;23.350;2022-10-26T02:45:28;95787.94;;;15.41;100.00
14067;BME280;7108;42.684;23.350;2022-10-26T02:47:56;95787.88;;;15.38;100.00
14067;BME280;7108;42.684;23.350;2022-10-26T02:50:29;95785.94;;;15.35;100.00
14067;BME280;7108;42.684;23.350;2022-10-26T02:53:05;95774.91;;;15.21;100.00
14067;BME280;7108;42.684;23.350;2022-10-26T02:55:48;95797.78;;;15.20;100.00
14067;BME280;7108;42.684;23.350;2022-10-26T02:58:18;95795.41;;;15.15;100.00
14067;BME280;7108;42.684;23.350;2022-10-26T03:00:46;95788.31;;;15.07;100.00
14067;BME280;7108;42.684;23.350;2022-10-26T03:03:12;95793.59;;;14.93;100.00
14067;BME280;7108;42.684;23.350;2022-10-26T03:05:41;95785.38;;;14.86;100.00
14067;BME280;7108;42.684;23.350;2022-10-26T03:08:06;95787.22;;;14.79;100.00
14067;BME280;7108;42.684;23.350;2022-10-26T03:10:33;95809.06;;;14.89;100.00
14067;BME280;7108;42.684;23.350;2022-10-26T03:13:01;95809.78;;;14.83;100.00
14067;BME280;7108;42.684;23.350;2022-10-26T03:15:26;95802.03;;;14.85;100.00
14067;BME280;7108;42.684;23.350;2022-10-26T03:17:51;95795.38;;;14.79;100.00
14067;BME280;7108;42.684;23.350;2022-10-26T03:20:17;95816.31;;;14.78;100.00
14067;BME280;7108;42.684;23.350;2022-10-26T03:22:42;95822.88;;;14.77;100.00
14067;BME280;7108;42.684;23.350;2022-10-26T03:25:08;95825.25;;;14.82;100.00
14067;BME280;7108;42.684;23.350;2022-10-26T03:27:33;95820.81;;;14.67;100.00
14067;BME280;7108;42.684;23.350;2022-10-26T03:29:59;95812.50;;;14.53;100.00
14067;BME280;7108;42.684;23.350;2022-10-26T03:32:24;95813.16;;;14.43;100.00
14067;BME280;7108;42.684;23.350;2022-10-26T03:34:50;95817.28;;;14.34;100.00
14067;BME280;7108;42.684;23.350;2022-10-26T03:37:15;95826.13;;;14.31;100.00
14067;BME280;7108;42.684;23.350;2022-10-26T03:39:40;95825.59;;;14.22;100.00
14067;BME280;7108;42.684;23.350;2022-10-26T03:42:06;95824.91;;;14.25;100.00
14067;BME280;7108;42.684;23.350;2022-10-26T03:44:31;95826.50;;;14.30;100.00
14067;BME280;7108;42.684;23.350;2022-10-26T03:46:57;95812.47;;;14.24;100.00
14067;BME280;7108;42.684;23.350;2022-10-26T03:49:22;95824.16;;;14.28;100.00
14067;BME280;7108;42.684;23.350;2022-10-26T03:51:47;95829.25;;;14.33;100.00
14067;BME280;7108;42.684;23.350;2022-10-26T03:54:13;95826.97;;;14.35;100.00
14067;BME280;7108;42.684;23.350;2022-10-26T03:56:38;95823.88;;;14.37;100.00
14067;BME280;7108;42.684;23.350;2022-10-26T03:59:04;95811.47;;;14.36;100.00
14067;BME280;7108;42.684;23.350;2022-10-26T04:01:29;95809.78;;;14.24;100.00
14067;BME280;7108;42.684;23.350;2022-10-26T04:03:55;95808.25;;;14.27;100.00
14067;BME280;7108;42.684;23.350;2022-10-26T04:06:20;95824.25;;;14.35;100.00
14067;BME280;7108;42.684;23.350;2022-10-26T04:08:45;95827.09;;;14.45;100.00
14067;BME280;7108;42.684;23.350;2022-10-26T04:11:11;95828.66;;;14.46;100.00
14067;BME280;7108;42.684;23.350;2022-10-26T04:13:36;95825.59;;;14.48;100.00
14067;BME280;7108;42.684;23.350;2022-10-26T04:16:02;95810.72;;;14.35;100.00
14067;BME280;7108;42.684;23.350;2022-10-26T04:18:27;95835.84;;;14.61;100.00
14067;BME280;7108;42.684;23.350;2022-10-26T04:20:52;95829.72;;;14.68;100.00
14067;BME280;7108;42.684;23.350;2022-10-26T04:23:18;95829.88;;;14.78;100.00
14067;BME280;7108;42.684;23.350;2022-10-26T04:25:44;95837.97;;;14.75;100.00
14067;BME280;7108;42.684;23.350;2022-10-26T04:28:11;95824.59;;;14.59;100.00
14067;BME280;7108;42.684;23.350;2022-10-26T04:30:38;95832.09;;;14.73;100.00
14067;BME280;7108;42.684;23.350;2022-10-26T04:33:04;95825.09;;;14.68;100.00
14067;BME280;7108;42.684;23.350;2022-10-26T04:35:30;95838.72;;;14.72;100.00
14067;BME280;7108;42.684;23.350;2022-10-26T04:37:59;95844.94;;;14.76;100.00
14067;BME280;7108;42.684;23.350;2022-10-26T04:40:26;95849.03;;;14.63;100.00
14067;BME280;7108;42.684;23.350;2022-10-26T04:42:52;95843.38;;;14.75;100.00
14067;BME280;7108;42.684;23.350;2022-10-26T04:45:18;95849.22;;;14.77;100.00
14067;BME280;7108;42.684;23.350;2022-10-26T04:47:47;95844.81;;;14.65;100.00
14067;BME280;7108;42.684;23.350;2022-10-26T04:50:13;95850.28;;;14.69;100.00
14067;BME280;7108;42.684;23.350;2022-10-26T04:52:39;95859.94;;;14.66;100.00
14067;BME280;7108;42.684;23.350;2022-10-26T04:55:05;95843.38;;;14.45;100.00
14067;BME280;7108;42.684;23.350;2022-10-26T04:57:32;95853.63;;;14.59;100.00
14067;BME280;7108;42.684;23.350;2022-10-26T04:59:59;95858.56;;;14.50;100.00
14067;BME280;7108;42.684;23.350;2022-10-26T05:02:25;95864.38;;;14.52;100.00
14067;BME280;7108;42.684;23.350;2022-10-26T05:04:50;95867.56;;;14.57;100.00
14067;BME280;7108;42.684;23.350;2022-10-26T05:07:15;95852.75;;;14.51;100.00
14067;BME280;7108;42.684;23.350;2022-10-26T05:09:41;95856.94;;;14.45;100.00
14067;BME280;7108;42.684;23.350;2022-10-26T05:12:07;95859.56;;;14.39;100.00
14067;BME280;7108;42.684;23.350;2022-10-26T05:14:32;95852.66;;;14.44;100.00
14067;BME280;7108;42.684;23.350;2022-10-26T05:16:57;95853.72;;;14.37;100.00
14067;BME280;7108;42.684;23.350;2022-10-26T05:19:23;95856.94;;;14.45;100.00
14067;BME280;7108;42.684;23.350;2022-10-26T05:21:48;95860.63;;;14.60;100.00
14067;BME280;7108;42.684;23.350;2022-10-26T05:24:13;95856.03;;;14.64;100.00
14067;BME280;7108;42.684;23.350;2022-10-26T05:26:39;95852.28;;;14.72;100.00
14067;BME280;7108;42.684;23.350;2022-10-26T05:29:04;95846.28;;;14.59;100.00
14067;BME280;7108;42.684;23.350;2022-10-26T05:31:29;95861.13;;;14.69;100.00
14067;BME280;7108;42.684;23.350;2022-10-26T05:33:55;95872.06;;;14.76;100.00
14067;BME280;7108;42.684;23.350;2022-10-26T05:36:20;95871.72;;;14.77;100.00
14067;BME280;7108;42.684;23.350;2022-10-26T05:38:46;95878.53;;;14.68;100.00
14067;BME280;7108;42.684;23.350;2022-10-26T05:41:12;95891.28;;;14.64;100.00
14067;BME280;7108;42.684;23.350;2022-10-26T05:43:37;95885.72;;;14.53;100.00
14067;BME280;7108;42.684;23.350;2022-10-26T05:46:03;95896.63;;;14.57;100.00
14067;BME280;7108;42.684;23.350;2022-10-26T05:48:29;95898.13;;;14.54;100.00
14067;BME280;7108;42.684;23.350;2022-10-26T05:50:58;95900.94;;;14.61;100.00
14067;BME280;7108;42.684;23.350;2022-10-26T05:53:24;95892.41;;;14.59;100.00
14067;BME280;7108;42.684;23.350;2022-10-26T05:55:50;95904.97;;;14.71;100.00
14067;BME280;7108;42.684;23.350;2022-10-26T05:58:16;95906.16;;;14.73;100.00
14067;BME280;7108;42.684;23.350;2022-10-26T06:01:12;95904.59;;;14.72;100.00
14067;BME280;7108;42.684;23.350;2022-10-26T06:06:21;95906.31;;;14.58;100.00
14067;BME280;7108;42.684;23.350;2022-10-26T06:08:46;95913.25;;;14.55;100.00
14067;BME280;7108;42.684;23.350;2022-10-26T06:11:12;95919.91;;;14.61;100.00
14067;BME280;7108;42.684;23.350;2022-10-26T06:13:38;95918.00;;;14.62;100.00
14067;BME280;7108;42.684;23.350;2022-10-26T06:24:04;95925.50;;;14.72;100.00
14067;BME280;7108;42.684;23.350;2022-10-26T06:26:56;95904.63;;;14.76;100.00
14067;BME280;7108;42.684;23.350;2022-10-26T06:32:21;95922.81;;;14.75;100.00
14067;BME280;7108;42.684;23.350;2022-10-26T06:34:49;95902.13;;;14.64;100.00
14067;BME280;7108;42.684;23.350;2022-10-26T06:37:17;95927.91;;;14.77;100.00
14067;BME280;7108;42.684;23.350;2022-10-26T06:39:45;95915.53;;;14.79;100.00
14067;BME280;7108;42.684;23.350;2022-10-26T06:42:11;95926.13;;;14.88;100.00
14067;BME280;7108;42.684;23.350;2022-10-26T06:44:37;95930.09;;;14.97;100.00
14067;BME280;7108;42.684;23.350;2022-10-26T06:47:17;95940.56;;;14.95;100.00
14067;BME280;7108;42.684;23.350;2022-10-26T06:54:59;95937.66;;;15.40;100.00
14067;BME280;7108;42.684;23.350;2022-10-26T06:57:32;95946.44;;;15.59;100.00
14067;BME280;7108;42.684;23.350;2022-10-26T07:00:02;95944.56;;;15.67;100.00
14067;BME280;7108;42.684;23.350;2022-10-26T07:02:28;95935.31;;;15.71;100.00
14067;BME280;7108;42.684;23.350;2022-10-26T07:04:53;95943.31;;;15.93;100.00
14067;BME280;7108;42.684;23.350;2022-10-26T07:07:29;95952.16;;;15.87;100.00
14067;BME280;7108;42.684;23.350;2022-10-26T07:09:55;95951.91;;;15.63;100.00
14067;BME280;7108;42.684;23.350;2022-10-26T07:12:21;95944.69;;;15.77;100.00
14067;BME280;7108;42.684;23.350;2022-10-26T07:14:46;95931.94;;;15.48;100.00
14067;BME280;7108;42.684;23.350;2022-10-26T07:17:12;95954.06;;;15.47;100.00
14067;BME280;7108;42.684;23.350;2022-10-26T07:19:37;95941.13;;;15.37;100.00
14067;BME280;7108;42.684;23.350;2022-10-26T07:22:04;95945.16;;;15.50;100.00
14067;BME280;7108;42.684;23.350;2022-10-26T07:24:30;95947.91;;;15.53;100.00
14067;BME280;7108;42.684;23.350;2022-10-26T07:26:56;95950.31;;;15.58;100.00
14067;BME280;7108;42.684;23.350;2022-10-26T07:29:24;95937.91;;;15.61;100.00
14067;BME280;7108;42.684;23.350;2022-10-26T07:31:50;95938.06;;;15.74;100.00
14067;BME280;7108;42.684;23.350;2022-10-26T07:34:16;95923.44;;;15.86;100.00
14067;BME280;7108;42.684;23.350;2022-10-26T07:36:41;95939.94;;;16.10;100.00
14067;BME280;7108;42.684;23.350;2022-10-26T07:39:07;95930.72;;;16.18;100.00
14067;BME280;7108;42.684;23.350;2022-10-26T07:41:33;95934.72;;;16.31;100.00
14067;BME280;7108;42.684;23.350;2022-10-26T07:43:59;95936.00;;;16.44;100.00
14067;BME280;7108;42.684;23.350;2022-10-26T07:46:24;95925.59;;;16.53;100.00
14067;BME280;7108;42.684;23.350;2022-10-26T07:48:50;95934.47;;;16.46;100.00
14067;BME280;7108;42.684;23.350;2022-10-26T07:51:15;95931.00;;;16.46;100.00
14067;BME280;7108;42.684;23.350;2022-10-26T07:53:41;95909.59;;;16.44;100.00
14067;BME280;7108;42.684;23.350;2022-10-26T07:56:07;95924.13;;;16.66;100.00
14067;BME280;7108;42.684;23.350;2022-10-26T07:58:33;95921.44;;;16.69;100.00
14067;BME280;7108;42.684;23.350;2022-10-26T08:01:05;95927.28;;;16.75;100.00
14067;BME280;7108;42.684;23.350;2022-10-26T08:03:31;95902.38;;;16.66;100.00
14067;BME280;7108;42.684;23.350;2022-10-26T08:05:56;95932.03;;;16.85;100.00
14067;BME280;7108;42.684;23.350;2022-10-26T08:08:22;95920.25;;;16.70;100.00
14067;BME280;7108;42.684;23.350;2022-10-26T08:10:47;95917.19;;;16.75;100.00
14067;BME280;7108;42.684;23.350;2022-10-26T08:13:13;95926.88;;;16.73;100.00
14067;BME280;7108;42.684;23.350;2022-10-26T08:15:39;95910.97;;;16.75;100.00
14067;BME280;7108;42.684;23.350;2022-10-26T08:18:05;95933.56;;;16.82;100.00
14067;BME280;7108;42.684;23.350;2022-10-26T08:20:31;95927.72;;;16.84;100.00
14067;BME280;7108;42.684;23.350;2022-10-26T08:22:57;95925.50;;;17.00;100.00
14067;BME280;7108;42.684;23.350;2022-10-26T08:25:23;95917.38;;;17.07;100.00
14067;BME280;7108;42.684;23.350;2022-10-26T08:27:48;95916.63;;;17.13;100.00
14067;BME280;7108;42.684;23.350;2022-10-26T08:30:14;95915.81;;;17.09;100.00
14067;BME280;7108;42.684;23.350;2022-10-26T08:32:39;95912.34;;;17.15;100.00
14067;BME280;7108;42.684;23.350;2022-10-26T08:35:07;95914.31;;;17.18;100.00
14067;BME280;7108;42.684;23.350;2022-10-26T08:37:32;95913.97;;;17.23;100.00
14067;BME280;7108;42.684;23.350;2022-10-26T08:39:58;95916.00;;;17.37;100.00
14067;BME280;7108;42.684;23.350;2022-10-26T08:42:28;95896.06;;;17.22;100.00
14067;BME280;7108;42.684;23.350;2022-10-26T08:45:00;95914.03;;;17.37;100.00
14067;BME280;7108;42.684;23.350;2022-10-26T08:47:49;95911.69;;;17.32;100.00
14067;BME280;7108;42.684;23.350;2022-10-26T08:50:44;95914.03;;;17.34;100.00
14067;BME280;7108;42.684;23.350;2022-10-26T08:53:40;95921.84;;;17.46;100.00
14067;BME280;7108;42.684;23.350;2022-10-26T08:59:00;95922.69;;;17.67;100.00
14067;BME280;7108;42.684;23.350;2022-10-26T09:01:23;95913.72;;;17.60;100.00
14067;BME280;7108;42.684;23.350;2022-10-26T09:03:49;95909.47;;;17.69;100.00
14067;BME280;7108;42.684;23.350;2022-10-26T09:06:25;95918.84;;;17.89;100.00
14067;BME280;7108;42.684;23.350;2022-10-26T09:09:02;95922.38;;;17.93;100.00
14067;BME280;7108;42.684;23.350;2022-10-26T09:23:03;95911.53;;;18.28;100.00
14067;BME280;7108;42.684;23.350;2022-10-26T09:25:39;95909.97;;;18.30;100.00
14067;BME280;7108;42.684;23.350;2022-10-26T09:28:18;95915.44;;;18.27;100.00
14067;BME280;7108;42.684;23.350;2022-10-26T09:30:45;95898.66;;;18.21;100.00
14067;BME280;7108;42.684;23.350;2022-10-26T09:33:15;95907.25;;;18.30;100.00
14067;BME280;7108;42.684;23.350;2022-10-26T09:35:46;95912.31;;;18.28;100.00
14067;BME280;7108;42.684;23.350;2022-10-26T09:38:28;95917.38;;;18.30;100.00
14067;BME280;7108;42.684;23.350;2022-10-26T09:43:43;95911.53;;;18.48;99.40
14067;BME280;7108;42.684;23.350;2022-10-26T09:46:19;95903.72;;;18.54;98.90
14067;BME280;7108;42.684;23.350;2022-10-26T09:48:49;95897.47;;;18.67;93.75
14067;BME280;7108;42.684;23.350;2022-10-26T09:51:18;95892.78;;;18.75;94.12
14067;BME280;7108;42.684;23.350;2022-10-26T09:53:44;95882.25;;;18.66;91.85
14067;BME280;7108;42.684;23.350;2022-10-26T09:56:11;95887.72;;;18.73;92.50
14067;BME280;7108;42.684;23.350;2022-10-26T09:58:49;95889.25;;;18.88;90.18
14067;BME280;7108;42.684;23.350;2022-10-26T10:01:21;95890.41;;;18.94;86.06
14067;BME280;7108;42.684;23.350;2022-10-26T10:03:46;95882.22;;;18.80;78.25
14067;BME280;7108;42.684;23.350;2022-10-26T10:06:19;95883.38;;;18.90;76.88
14067;BME280;7108;42.684;23.350;2022-10-26T10:09:11;95880.25;;;18.95;79.61
14067;BME280;7108;42.684;23.350;2022-10-26T10:11:45;95882.56;;;18.96;81.60
14067;BME280;7108;42.684;23.350;2022-10-26T10:14:22;95856.81;;;18.97;81.05
14067;BME280;7108;42.684;23.350;2022-10-26T10:16:52;95860.72;;;19.10;79.34
14067;BME280;7108;42.684;23.350;2022-10-26T10:19:29;95861.09;;;19.15;78.19
14067;BME280;7108;42.684;23.350;2022-10-26T10:21:58;95870.00;;;19.26;79.10
14067;BME280;7108;42.684;23.350;2022-10-26T10:27:00;95869.19;;;19.33;77.80
14067;BME280;7108;42.684;23.350;2022-10-26T10:29:47;95870.34;;;19.39;74.66
14067;BME280;7108;42.684;23.350;2022-10-26T10:32:21;95862.47;;;19.48;72.76
14067;BME280;7108;42.684;23.350;2022-10-26T10:34:47;95860.53;;;19.52;72.34
14067;BME280;7108;42.684;23.350;2022-10-26T10:37:36;95860.13;;;19.57;71.87
14067;BME280;7108;42.684;23.350;2022-10-26T10:40:07;95860.47;;;19.59;72.10
14067;BME280;7108;42.684;23.350;2022-10-26T10:42:37;95850.28;;;19.63;71.58
14067;BME280;7108;42.684;23.350;2022-10-26T10:45:05;95843.31;;;19.58;70.79
14067;BME280;7108;42.684;23.350;2022-10-26T10:47:34;95854.16;;;19.69;69.07
14067;BME280;7108;42.684;23.350;2022-10-26T10:50:06;95846.34;;;19.74;68.55
14067;BME280;7108;42.684;23.350;2022-10-26T10:52:39;95844.00;;;19.73;67.74
14067;BME280;7108;42.684;23.350;2022-10-26T11:00:26;95838.38;;;19.97;65.53
14067;BME280;7108;42.684;23.350;2022-10-26T11:03:05;95842.25;;;19.99;66.58
14067;BME280;7108;42.684;23.350;2022-10-26T11:08:24;95826.53;;;20.10;69.88
14067;BME280;7108;42.684;23.350;2022-10-26T11:11:05;95819.50;;;20.09;68.71
14067;BME280;7108;42.684;23.350;2022-10-26T11:16:14;95815.53;;;20.17;69.03
14067;BME280;7108;42.684;23.350;2022-10-26T11:18:46;95820.19;;;20.24;70.07
14067;BME280;7108;42.684;23.350;2022-10-26T11:21:18;95820.13;;;20.31;69.18
14067;BME280;7108;42.684;23.350;2022-10-26T11:23:51;95822.41;;;20.39;68.05
14067;BME280;7108;42.684;23.350;2022-10-26T11:26:32;95816.56;;;20.34;68.61
14067;BME280;7108;42.684;23.350;2022-10-26T11:29:17;95826.56;;;20.50;64.89
14067;BME280;7108;42.684;23.350;2022-10-26T11:31:47;95813.03;;;20.37;62.55
14067;BME280;7108;42.684;23.350;2022-10-26T11:37:02;95813.56;;;20.61;61.89
14067;BME280;7108;42.684;23.350;2022-10-26T11:39:45;95807.25;;;20.64;62.46
14067;BME280;7108;42.684;23.350;2022-10-26T11:42:14;95812.34;;;20.66;60.35
14067;BME280;7108;42.684;23.350;2022-10-26T11:47:17;95805.22;;;20.72;57.45
14067;BME280;7108;42.684;23.350;2022-10-26T11:49:54;95803.56;;;20.85;60.76
14067;BME280;7108;42.684;23.350;2022-10-26T11:52:37;95799.59;;;20.89;54.73
14067;BME280;7108;42.684;23.350;2022-10-26T11:55:04;95805.81;;;20.93;53.78
14067;BME280;7108;42.684;23.350;2022-10-26T11:57:32;95793.59;;;20.98;54.17
14067;BME280;7108;42.684;23.350;2022-10-26T12:02:39;95790.38;;;21.06;54.48
14067;BME280;7108;42.684;23.350;2022-10-26T12:07:52;95791.34;;;21.22;49.41
14067;BME280;7108;42.684;23.350;2022-10-26T12:10:24;95790.50;;;21.25;49.12
14067;BME280;7108;42.684;23.350;2022-10-26T12:15:49;95798.53;;;21.39;47.78
14067;BME280;7108;42.684;23.350;2022-10-26T12:18:33;95797.78;;;21.39;46.56
14067;BME280;7108;42.684;23.350;2022-10-26T12:21:05;95794.28;;;21.38;44.57
14067;BME280;7108;42.684;23.350;2022-10-26T12:23:58;95789.50;;;21.42;44.87
14067;BME280;7108;42.684;23.350;2022-10-26T12:33:55;95789.75;;;21.51;43.98
14067;BME280;7108;42.684;23.350;2022-10-26T12:39:32;95785.16;;;21.45;43.39
14067;BME280;7108;42.684;23.350;2022-10-26T12:52:52;95782.72;;;21.50;42.53
14067;BME280;7108;42.684;23.350;2022-10-26T12:58:18;95789.66;;;21.62;42.31
14067;BME280;7108;42.684;23.350;2022-10-26T13:03:36;95787.44;;;21.53;41.11
14067;BME280;7108;42.684;23.350;2022-10-26T13:06:27;95778.50;;;21.46;42.07
14067;BME280;7108;42.684;23.350;2022-10-26T13:08:57;95796.47;;;21.47;40.96
14067;BME280;7108;42.684;23.350;2022-10-26T13:11:31;95787.94;;;21.41;39.84
14067;BME280;7108;42.684;23.350;2022-10-26T13:14:04;95797.59;;;21.53;39.97
14067;BME280;7108;42.684;23.350;2022-10-26T13:16:32;95792.91;;;21.53;39.57
14067;BME280;7108;42.684;23.350;2022-10-26T13:18:58;95794.50;;;21.51;40.07
14067;BME280;7108;42.684;23.350;2022-10-26T13:21:24;95778.00;;;21.54;40.64
14067;BME280;7108;42.684;23.350;2022-10-26T13:26:21;95799.88;;;21.58;39.18
14067;BME280;7108;42.684;23.350;2022-10-26T13:28:55;95801.56;;;21.52;39.07
14067;BME280;7108;42.684;23.350;2022-10-26T13:33:56;95800.72;;;21.51;38.16
14067;BME280;7108;42.684;23.350;2022-10-26T13:36:31;95790.38;;;21.36;37.34
14067;BME280;7108;42.684;23.350;2022-10-26T13:41:46;95802.59;;;21.31;36.89
14067;BME280;7108;42.684;23.350;2022-10-26T13:44:20;95799.47;;;21.29;36.63
14067;BME280;7108;42.684;23.350;2022-10-26T13:46:52;95794.41;;;21.28;38.09
14067;BME280;7108;42.684;23.350;2022-10-26T13:49:24;95801.09;;;21.23;36.08
14067;BME280;7108;42.684;23.350;2022-10-26T13:51:52;95793.78;;;21.13;36.60
14067;BME280;7108;42.684;23.350;2022-10-26T13:54:33;95800.88;;;21.11;36.51
14067;BME280;7108;42.684;23.350;2022-10-26T13:59:50;95807.81;;;21.22;36.91
14067;BME280;7108;42.684;23.350;2022-10-26T14:02:21;95810.16;;;21.20;36.62
14067;BME280;7108;42.684;23.350;2022-10-26T14:04:58;95806.00;;;21.09;35.97
14067;BME280;7108;42.684;23.350;2022-10-26T14:07:32;95795.16;;;20.99;35.80
14067;BME280;7108;42.684;23.350;2022-10-26T14:09:58;95809.66;;;20.99;36.44
14067;BME280;7108;42.684;23.350;2022-10-26T14:12:25;95814.72;;;21.01;35.95
14067;BME280;7108;42.684;23.350;2022-10-26T14:15:01;95815.53;;;20.98;36.01
14067;BME280;7108;42.684;23.350;2022-10-26T14:17:27;95807.38;;;20.94;35.97
14067;BME280;7108;42.684;23.350;2022-10-26T14:19:53;95800.38;;;20.90;36.79
14067;BME280;7108;42.684;23.350;2022-10-26T14:22:23;95801.56;;;20.85;36.93
14067;BME280;7108;42.684;23.350;2022-10-26T14:24:58;95818.78;;;20.89;37.42
14067;BME280;7108;42.684;23.350;2022-10-26T14:27:26;95813.41;;;20.79;36.94
14067;BME280;7108;42.684;23.350;2022-10-26T14:29:53;95811.50;;;20.76;37.72
14067;BME280;7108;42.684;23.350;2022-10-26T14:32:30;95815.75;;;20.77;38.07
14067;BME280;7108;42.684;23.350;2022-10-26T14:34:57;95807.22;;;20.68;38.80
14067;BME280;7108;42.684;23.350;2022-10-26T14:37:55;95815.09;;;20.66;38.48
14067;BME280;7108;42.684;23.350;2022-10-26T14:40:24;95814.38;;;20.58;38.42
14067;BME280;7108;42.684;23.350;2022-10-26T14:42:58;95816.81;;;20.49;38.60
14067;BME280;7108;42.684;23.350;2022-10-26T14:45:29;95817.66;;;20.43;38.73
14067;BME280;7108;42.684;23.350;2022-10-26T14:47:55;95828.59;;;20.46;39.08
14067;BME280;7108;42.684;23.350;2022-10-26T14:50:23;95825.47;;;20.44;39.27
14067;BME280;7108;42.684;23.350;2022-10-26T14:52:54;95823.19;;;20.36;39.22
14067;BME280;7108;42.684;23.350;2022-10-26T14:55:22;95839.28;;;20.31;38.63
14067;BME280;7108;42.684;23.350;2022-10-26T14:57:51;95831.50;;;20.26;38.81
14067;BME280;7108;42.684;23.350;2022-10-26T15:00:24;95843.59;;;20.28;38.74